createdAt,value
2018-12-15T00:01:29.860Z,44.60
2018-12-15T00:03:58.599Z,42.83
2018-12-15T00:06:27.289Z,40.93
2018-12-15T00:08:55.280Z,37.17
2018-12-15T00:11:23.225Z,41.47
2018-12-15T00:13:51.086Z,39.90
2018-12-15T00:16:18.966Z,41.03
2018-12-15T00:18:46.817Z,47.03
2018-12-15T00:21:14.684Z,39.60
2018-12-15T00:23:42.900Z,47.23
2018-12-15T00:26:10.840Z,37.57
2018-12-15T00:28:38.830Z,36.20
2018-12-15T00:31:06.797Z,43.70
2018-12-15T00:33:34.992Z,36.33
2018-12-15T00:36:02.702Z,34.73
2018-12-15T00:38:30.567Z,38.27
2018-12-15T00:40:58.592Z,34.47
2018-12-15T00:43:26.668Z,38.37
2018-12-15T00:45:54.590Z,35.17
2018-12-15T00:48:22.657Z,37.20
2018-12-15T00:50:50.845Z,35.60
2018-12-15T00:53:19.051Z,32.43
2018-12-15T00:55:46.878Z,36.83
2018-12-15T00:58:14.744Z,36.37
2018-12-15T01:00:43.777Z,31.90
2018-12-15T01:03:11.926Z,28.17
2018-12-15T01:05:40.028Z,32.77
2018-12-15T01:08:07.931Z,33.47
2018-12-15T01:10:35.822Z,29.33
2018-12-15T01:13:04.112Z,29.73
2018-12-15T01:15:46.627Z,30.27
2018-12-15T01:18:14.795Z,29.70
2018-12-15T01:20:42.960Z,41.57
2018-12-15T01:23:11.254Z,28.23
2018-12-15T01:25:39.415Z,26.97
2018-12-15T01:28:07.406Z,27.27
2018-12-15T01:30:35.221Z,26.13
2018-12-15T01:33:03.213Z,26.17
2018-12-15T01:35:31.304Z,26.37
2018-12-15T01:37:59.243Z,23.50
2018-12-15T01:40:27.105Z,21.87
2018-12-15T01:42:55.100Z,22.90
2018-12-15T01:45:23.298Z,23.83
2018-12-15T01:47:51.366Z,22.20
2018-12-15T01:50:19.297Z,22.93
2018-12-15T01:52:47.405Z,21.93
2018-12-15T01:55:15.445Z,20.40
2018-12-15T01:57:43.645Z,17.13
2018-12-15T02:00:13.464Z,18.83
2018-12-15T02:02:41.427Z,21.30
2018-12-15T02:05:09.366Z,23.10
2018-12-15T02:07:37.332Z,17.93
2018-12-15T02:10:06.472Z,18.20
2018-12-15T02:12:35.371Z,20.70
2018-12-15T02:15:03.728Z,18.90
2018-12-15T02:17:33.781Z,20.63
2018-12-15T02:20:02.025Z,21.77
2018-12-15T02:22:30.076Z,19.90
2018-12-15T02:24:58.215Z,21.03
2018-12-15T02:27:26.081Z,18.70
2018-12-15T02:29:54.072Z,19.00
2018-12-15T02:32:22.383Z,22.33
2018-12-15T02:34:50.249Z,20.40
2018-12-15T02:37:18.319Z,24.20
2018-12-15T02:39:46.360Z,26.60
2018-12-15T02:42:14.325Z,23.00
2018-12-15T02:44:42.190Z,22.93
2018-12-15T02:47:10.056Z,22.83
2018-12-15T02:49:37.923Z,25.60
2018-12-15T02:52:05.838Z,20.77
2018-12-15T02:54:33.853Z,20.33
2018-12-15T02:57:01.744Z,23.03
2018-12-15T02:59:30.142Z,18.63
2018-12-15T03:01:58.201Z,18.13
2018-12-15T03:04:26.285Z,24.07
2018-12-15T03:06:54.131Z,23.70
2018-12-15T03:09:22.072Z,22.33
2018-12-15T03:11:50.099Z,18.07
2018-12-15T03:14:18.004Z,17.40
2018-12-15T03:17:07.121Z,20.90
2018-12-15T03:19:35.162Z,19.83
2018-12-15T03:22:03.132Z,21.50
2018-12-15T03:24:31.314Z,17.60
2018-12-15T03:26:59.405Z,22.83
2018-12-15T03:29:27.491Z,20.37
2018-12-15T03:31:55.414Z,16.33
2018-12-15T03:34:23.340Z,19.17
2018-12-15T03:36:51.472Z,19.30
2018-12-15T03:39:19.410Z,17.30
2018-12-15T03:41:47.553Z,17.77
2018-12-15T03:44:15.701Z,16.30
2018-12-15T03:46:43.756Z,13.47
2018-12-15T03:49:11.843Z,14.50
2018-12-15T03:51:39.913Z,14.53
2018-12-15T03:54:07.828Z,13.47
2018-12-15T03:56:35.827Z,16.47
2018-12-15T03:59:04.110Z,13.60
2018-12-15T04:01:32.272Z,12.07
2018-12-15T04:04:00.090Z,11.50
2018-12-15T04:06:28.007Z,13.30
2018-12-15T04:08:55.971Z,12.00
2018-12-15T04:11:24.078Z,10.90
2018-12-15T04:13:52.079Z,11.30
2018-12-15T04:16:20.004Z,11.23
2018-12-15T04:18:47.935Z,12.47
2018-12-15T04:21:15.926Z,12.77
2018-12-15T04:23:44.691Z,12.60
2018-12-15T04:26:12.707Z,14.10
2018-12-15T04:28:40.778Z,13.37
2018-12-15T04:31:08.814Z,14.43
2018-12-15T04:33:37.705Z,11.57
2018-12-15T04:36:11.544Z,11.50
2018-12-15T04:38:39.584Z,14.23
2018-12-15T04:41:07.525Z,13.10
2018-12-15T04:43:35.415Z,17.60
2018-12-15T04:46:03.256Z,13.80
2018-12-15T04:48:31.291Z,13.50
2018-12-15T04:50:59.816Z,14.60
2018-12-15T04:53:27.804Z,12.87
2018-12-15T04:55:56.536Z,12.53
2018-12-15T04:58:24.459Z,14.47
2018-12-15T05:00:52.463Z,11.70
2018-12-15T05:03:20.459Z,16.17
2018-12-15T05:05:48.381Z,17.27
2018-12-15T05:08:16.477Z,15.73
2018-12-15T05:10:44.317Z,18.83
2018-12-15T05:13:12.208Z,15.47
2018-12-15T05:15:40.245Z,14.80
2018-12-15T05:18:08.347Z,14.87
2018-12-15T05:20:36.278Z,18.97
2018-12-15T05:23:04.267Z,16.03
2018-12-15T05:25:32.356Z,15.00
2018-12-15T05:28:00.097Z,18.53
2018-12-15T05:30:28.089Z,15.67
2018-12-15T05:32:56.161Z,16.30
2018-12-15T05:35:24.195Z,16.40
2018-12-15T05:37:52.160Z,16.00
2018-12-15T05:40:20.026Z,14.60
2018-12-15T05:42:48.036Z,18.23
2018-12-15T05:45:16.082Z,16.40
2018-12-15T05:47:44.825Z,15.30
2018-12-15T05:50:13.070Z,14.67
2018-12-15T05:52:41.055Z,17.63
2018-12-15T05:55:08.924Z,18.70
2018-12-15T05:57:36.873Z,18.70
2018-12-15T06:00:08.017Z,16.77
2018-12-15T06:02:36.292Z,19.93
2018-12-15T06:05:05.159Z,16.97
2018-12-15T06:07:33.099Z,13.83
2018-12-15T06:10:01.314Z,15.27
2018-12-15T06:12:29.254Z,13.87
2018-12-15T06:14:57.121Z,15.67
2018-12-15T06:17:25.111Z,16.07
2018-12-15T06:19:53.202Z,15.90
2018-12-15T06:22:21.244Z,16.40
2018-12-15T06:24:49.310Z,21.80
2018-12-15T06:27:17.274Z,17.63
2018-12-15T06:29:45.265Z,15.27
2018-12-15T06:32:14.386Z,16.63
2018-12-15T06:34:42.431Z,18.70
2018-12-15T06:37:10.912Z,14.87
2018-12-15T06:39:38.852Z,16.90
2018-12-15T06:42:06.970Z,15.37
2018-12-15T06:44:35.033Z,16.70
2018-12-15T06:47:02.974Z,16.10
2018-12-15T06:49:31.187Z,17.47
2018-12-15T06:51:58.930Z,15.70
2018-12-15T06:54:26.896Z,19.47
2018-12-15T06:56:54.966Z,19.60
2018-12-15T06:59:23.058Z,18.10
2018-12-15T07:01:50.768Z,20.50
2018-12-15T07:04:18.791Z,20.63
2018-12-15T07:06:46.724Z,17.70
2018-12-15T07:09:14.640Z,17.30
2018-12-15T07:11:42.492Z,19.60
2018-12-15T07:14:10.671Z,20.70
2018-12-15T07:16:38.712Z,19.70
2018-12-15T07:19:06.653Z,20.27
2018-12-15T07:21:34.519Z,23.80
2018-12-15T07:24:02.508Z,22.07
2018-12-15T07:26:30.613Z,18.00
2018-12-15T07:28:58.889Z,20.10
2018-12-15T07:31:26.930Z,25.13
2018-12-15T07:33:55.021Z,25.07
2018-12-15T07:36:22.962Z,21.87
2018-12-15T07:38:50.827Z,22.10
2018-12-15T07:41:19.044Z,20.60
2018-12-15T07:43:47.083Z,23.30
2018-12-15T07:46:15.250Z,21.97
2018-12-15T07:48:43.219Z,21.20
2018-12-15T07:51:11.121Z,22.07
2018-12-15T07:53:39.089Z,19.60
2018-12-15T07:56:07.058Z,22.50
2018-12-15T07:58:35.027Z,22.73
2018-12-15T08:01:02.744Z,23.60
2018-12-15T08:03:30.760Z,21.80
2018-12-15T08:05:58.627Z,20.07
2018-12-15T08:08:26.570Z,25.37
2018-12-15T08:11:00.299Z,21.40
2018-12-15T08:13:29.299Z,27.53
2018-12-15T08:15:57.600Z,25.17
2018-12-15T08:18:25.380Z,23.97
2018-12-15T08:20:53.368Z,24.40
2018-12-15T08:23:21.464Z,25.07
2018-12-15T08:25:49.624Z,28.23
2018-12-15T08:28:17.566Z,23.83
2018-12-15T08:30:46.188Z,29.03
2018-12-15T08:33:14.123Z,26.80
2018-12-15T08:35:42.063Z,26.30
2018-12-15T08:38:10.209Z,21.73
2018-12-15T08:40:38.243Z,24.40
2018-12-15T08:43:06.357Z,27.87
2018-12-15T08:45:34.400Z,24.30
2018-12-15T08:48:02.345Z,25.13
2018-12-15T08:50:30.331Z,23.97
2018-12-15T08:52:58.622Z,24.50
2018-12-15T08:55:26.562Z,21.30
2018-12-15T08:57:54.778Z,24.90
2018-12-15T09:00:22.697Z,22.20
2018-12-15T09:02:50.793Z,24.10
2018-12-15T09:05:18.791Z,19.90
2018-12-15T09:07:46.716Z,19.60
2018-12-15T09:10:14.586Z,17.97
2018-12-15T09:12:42.571Z,17.90
2018-12-15T09:15:11.483Z,26.90
2018-12-15T09:17:40.079Z,21.10
2018-12-15T09:20:08.239Z,24.50
2018-12-15T09:22:36.235Z,21.33
2018-12-15T09:25:04.453Z,22.60
2018-12-15T09:27:32.365Z,17.93
2018-12-15T09:30:00.309Z,16.37
2018-12-15T09:32:28.248Z,14.70
2018-12-15T09:34:56.112Z,19.17
2018-12-15T09:37:23.981Z,22.93
2018-12-15T09:39:51.843Z,27.80
2018-12-15T09:42:20.063Z,22.93
2018-12-15T09:44:48.000Z,22.17
2018-12-15T09:47:16.014Z,20.53
2018-12-15T09:49:43.931Z,20.20
2018-12-15T09:52:12.122Z,18.87
2018-12-15T09:54:40.066Z,19.37
2018-12-15T09:57:08.153Z,23.93
2018-12-15T09:59:36.094Z,21.37
2018-12-15T10:02:04.324Z,21.07
2018-12-15T10:04:32.328Z,21.73
2018-12-15T10:07:00.468Z,20.57
2018-12-15T10:09:31.584Z,23.87
2018-12-15T10:15:07.860Z,21.43
2018-12-15T10:17:35.825Z,22.00
2018-12-15T10:20:05.203Z,25.90
2018-12-15T10:22:33.337Z,23.80
2018-12-15T10:25:01.400Z,25.93
2018-12-15T10:27:29.539Z,23.13
2018-12-15T10:33:01.507Z,23.60
2018-12-15T10:35:29.650Z,25.50
2018-12-15T10:37:57.513Z,24.97
2018-12-15T10:40:25.675Z,23.33
2018-12-15T10:42:53.746Z,25.17
2018-12-15T10:45:21.662Z,25.10
2018-12-15T10:47:49.889Z,23.40
2018-12-15T10:50:17.942Z,23.87
2018-12-15T10:52:46.032Z,27.50
2018-12-15T10:55:13.903Z,25.73
2018-12-15T10:57:41.965Z,23.67
2018-12-15T11:00:12.155Z,27.77
2018-12-15T11:02:40.284Z,23.07
2018-12-15T11:05:08.662Z,24.90
2018-12-15T11:07:36.716Z,25.87
2018-12-15T11:10:04.988Z,26.53
2018-12-15T11:12:32.708Z,24.80
2018-12-15T11:15:00.826Z,27.13
2018-12-15T11:17:28.689Z,23.93
2018-12-15T11:19:56.630Z,24.20
2018-12-15T11:22:24.730Z,25.63
2018-12-15T11:24:52.787Z,24.57
2018-12-15T11:27:24.368Z,26.07
2018-12-15T11:29:52.426Z,23.50
2018-12-15T11:32:20.484Z,24.70
2018-12-15T11:34:48.426Z,25.13
2018-12-15T11:37:16.230Z,27.80
2018-12-15T11:39:44.256Z,25.03
2018-12-15T11:42:12.293Z,23.27
2018-12-15T11:44:40.187Z,24.93
2018-12-15T11:47:08.003Z,27.13
2018-12-15T11:49:35.919Z,24.03
2018-12-15T11:52:03.786Z,24.93
2018-12-15T11:54:31.901Z,26.00
2018-12-15T11:56:59.942Z,24.40
2018-12-15T11:59:27.857Z,25.00
2018-12-15T12:01:55.797Z,25.63
2018-12-15T12:04:23.749Z,27.53
2018-12-15T12:06:51.606Z,24.70
2018-12-15T12:09:19.622Z,25.37
2018-12-15T12:11:47.663Z,25.17
2018-12-15T12:14:15.952Z,23.87
2018-12-15T12:16:45.471Z,24.83
2018-12-15T12:19:13.407Z,23.13
2018-12-15T12:21:41.273Z,23.23
2018-12-15T12:24:09.140Z,23.30
2018-12-15T12:26:37.012Z,22.57
2018-12-15T12:29:05.216Z,21.93
2018-12-15T12:31:33.236Z,19.73
2018-12-15T12:34:01.327Z,21.10
2018-12-15T12:36:29.267Z,22.37
2018-12-15T12:38:58.368Z,17.83
2018-12-15T12:41:26.652Z,21.23
2018-12-15T12:43:54.667Z,20.33
2018-12-15T12:46:22.840Z,21.27
2018-12-15T12:48:50.995Z,22.37
2018-12-15T12:51:19.291Z,24.67
2018-12-15T12:53:47.328Z,23.93
2018-12-15T12:56:15.292Z,26.77
2018-12-15T12:58:43.408Z,23.07
2018-12-15T13:01:11.348Z,22.90
2018-12-15T13:03:39.293Z,23.20
2018-12-15T13:06:07.310Z,23.83
2018-12-15T13:08:35.382Z,25.43
2018-12-15T13:11:03.246Z,28.20
2018-12-15T13:13:31.202Z,25.87
2018-12-15T13:15:59.391Z,24.70
2018-12-15T13:18:27.435Z,22.10
2018-12-15T13:20:55.376Z,22.30
2018-12-15T13:23:23.241Z,25.70
2018-12-15T13:25:51.259Z,26.50
2018-12-15T13:28:19.197Z,23.50
2018-12-15T13:30:47.306Z,26.47
2018-12-15T13:33:27.101Z,23.90
2018-12-15T13:35:55.218Z,27.17
2018-12-15T13:38:23.159Z,26.40
2018-12-15T13:40:51.779Z,24.57
2018-12-15T13:43:19.848Z,24.40
2018-12-15T13:45:47.832Z,25.57
2018-12-15T13:48:15.696Z,29.43
2018-12-15T13:50:43.866Z,32.17
2018-12-15T13:53:11.829Z,24.77
2018-12-15T13:55:39.780Z,22.77
2018-12-15T13:58:07.808Z,23.70
2018-12-15T14:00:35.941Z,26.10
2018-12-15T14:03:03.965Z,27.80
2018-12-15T14:05:32.079Z,28.40
2018-12-15T14:08:00.821Z,24.20
2018-12-15T14:10:28.810Z,25.60
2018-12-15T14:12:56.907Z,26.23
2018-12-15T14:15:24.649Z,32.53
2018-12-15T14:17:52.833Z,22.43
2018-12-15T14:20:20.774Z,28.53
2018-12-15T14:22:48.640Z,27.20
2018-12-15T14:25:16.649Z,23.97
2018-12-15T14:27:44.621Z,24.20
2018-12-15T14:30:12.563Z,25.00
2018-12-15T14:32:40.658Z,27.40
2018-12-15T14:35:08.935Z,25.83
2018-12-15T14:37:36.909Z,27.97
2018-12-15T14:40:05.251Z,26.23
2018-12-15T14:42:33.340Z,27.30
2018-12-15T14:45:01.283Z,26.23
2018-12-15T14:47:29.346Z,30.17
2018-12-15T14:49:57.212Z,24.03
2018-12-15T14:52:25.429Z,28.33
2018-12-15T14:54:53.506Z,26.43
2018-12-15T14:57:25.815Z,29.37
2018-12-15T14:59:53.925Z,30.60
2018-12-15T15:02:22.019Z,30.23
2018-12-15T15:04:50.006Z,30.47
2018-12-15T15:07:17.872Z,29.53
2018-12-15T15:09:46.028Z,29.03
2018-12-15T15:12:14.028Z,29.87
2018-12-15T15:14:42.469Z,32.27
2018-12-15T15:17:10.856Z,32.47
2018-12-15T15:19:38.900Z,35.43
2018-12-15T15:22:06.999Z,32.60
2018-12-15T15:24:44.899Z,30.00
2018-12-15T15:33:43.386Z,31.50
2018-12-15T15:36:11.376Z,32.87
2018-12-15T15:38:39.465Z,35.47
2018-12-15T15:41:07.508Z,35.07
2018-12-15T15:43:35.609Z,33.50
2018-12-15T15:46:03.663Z,34.33
2018-12-15T15:48:31.750Z,35.77
2018-12-15T15:50:59.770Z,39.93
2018-12-15T15:53:27.736Z,37.90
2018-12-15T15:55:55.676Z,34.33
2018-12-15T15:58:24.142Z,39.27
2018-12-15T16:00:52.210Z,36.67
2018-12-15T16:03:20.283Z,31.17
2018-12-15T16:05:48.293Z,33.23
2018-12-15T16:08:16.279Z,32.40
2018-12-15T16:10:44.144Z,33.33
2018-12-15T16:13:12.012Z,36.13
2018-12-15T16:15:40.023Z,35.30
2018-12-15T16:18:07.744Z,38.70
2018-12-15T16:20:35.755Z,37.30
2018-12-15T16:23:03.798Z,39.63
2018-12-15T16:25:31.739Z,40.20
2018-12-15T16:27:59.680Z,34.73
2018-12-15T16:30:27.595Z,38.90
2018-12-15T16:32:55.561Z,35.03
2018-12-15T16:35:23.703Z,38.43
2018-12-15T16:37:51.694Z,34.83
2018-12-15T16:40:19.712Z,41.27
2018-12-15T16:42:47.749Z,41.70
2018-12-15T16:45:15.863Z,39.77
2018-12-15T16:47:43.824Z,37.70
2018-12-15T16:50:11.771Z,37.37
2018-12-15T16:52:40.478Z,36.23
2018-12-15T16:55:08.727Z,41.37
2018-12-15T16:57:36.685Z,43.00
2018-12-15T17:00:07.562Z,45.87
2018-12-15T17:02:35.474Z,44.10
2018-12-15T17:05:03.890Z,42.47
2018-12-15T17:07:31.831Z,39.30
2018-12-15T17:10:00.022Z,43.80
2018-12-15T17:12:27.963Z,40.37
2018-12-15T17:14:55.836Z,42.90
2018-12-15T17:17:23.693Z,43.60
2018-12-15T17:19:51.587Z,42.93
2018-12-15T17:22:19.425Z,48.20
2018-12-15T17:24:47.318Z,54.47
2018-12-15T17:27:24.808Z,56.90
2018-12-15T17:29:52.996Z,49.60
2018-12-15T17:32:20.941Z,43.87
2018-12-15T17:34:48.955Z,47.10
2018-12-15T17:37:16.868Z,47.97
2018-12-15T17:39:44.734Z,44.10
2018-12-15T17:42:12.949Z,47.80
2018-12-15T17:44:41.035Z,47.43
2018-12-15T17:47:08.956Z,42.63
2018-12-15T17:49:36.956Z,46.23
2018-12-15T17:52:05.043Z,51.20
2018-12-15T17:54:33.028Z,46.10
2018-12-15T17:57:00.944Z,48.63
2018-12-15T17:59:28.909Z,50.37
2018-12-15T18:01:56.775Z,44.60
2018-12-15T18:04:24.766Z,51.97
2018-12-15T18:06:52.706Z,44.03
2018-12-15T18:09:20.720Z,46.27
2018-12-15T18:11:48.462Z,44.53
2018-12-15T18:14:16.642Z,48.10
2018-12-15T18:16:44.920Z,47.80
2018-12-15T18:19:13.215Z,48.30
2018-12-15T18:21:41.051Z,42.93
2018-12-15T18:24:08.991Z,48.60
2018-12-15T18:26:36.982Z,48.37
2018-12-15T18:29:04.946Z,51.73
2018-12-15T18:31:32.938Z,51.43
2018-12-15T18:34:01.028Z,52.80
2018-12-15T18:36:29.070Z,49.53
2018-12-15T18:38:57.010Z,49.30
2018-12-15T18:41:24.901Z,46.87
2018-12-15T18:43:52.866Z,51.97
2018-12-15T18:46:20.832Z,46.23
2018-12-15T18:48:48.697Z,43.90
2018-12-15T18:51:16.710Z,46.37
2018-12-15T18:53:44.629Z,51.43
2018-12-15T18:56:12.620Z,47.77
2018-12-15T18:58:40.685Z,46.70
2018-12-15T19:01:08.787Z,44.67
2018-12-15T19:03:36.719Z,47.17
2018-12-15T19:06:04.770Z,48.47
2018-12-15T19:08:33.476Z,43.30
2018-12-15T19:11:01.464Z,46.80
2018-12-15T19:13:29.531Z,50.20
2018-12-15T19:15:57.627Z,49.73
2018-12-15T19:18:25.611Z,52.70
2018-12-15T19:20:53.477Z,50.03
2018-12-15T19:23:21.621Z,47.87
2018-12-15T19:25:49.909Z,51.30
2018-12-15T19:28:17.830Z,49.10
2018-12-15T19:30:45.718Z,48.77
2018-12-15T19:33:13.904Z,47.17
2018-12-15T19:35:41.850Z,51.53
2018-12-15T19:38:09.716Z,49.13
2018-12-15T19:40:37.577Z,49.60
2018-12-15T19:43:05.693Z,52.87
2018-12-15T19:45:33.660Z,53.47
2018-12-15T19:48:01.938Z,51.80
2018-12-15T19:50:29.864Z,54.07
2018-12-15T19:52:57.858Z,52.60
2018-12-15T19:55:25.796Z,52.10
2018-12-15T19:57:53.661Z,49.43
2018-12-15T20:00:21.651Z,52.67
2018-12-15T20:02:49.718Z,50.90
2018-12-15T20:05:17.821Z,57.60
2018-12-15T20:07:45.750Z,53.00
2018-12-15T20:10:13.656Z,54.00
2018-12-15T20:12:41.481Z,58.57
2018-12-15T20:15:09.647Z,54.93
2018-12-15T20:17:37.769Z,61.43
2018-12-15T20:20:06.658Z,63.80
2018-12-15T20:22:34.680Z,52.53
2018-12-15T20:25:02.784Z,58.10
2018-12-15T20:27:30.873Z,66.10
2018-12-15T20:29:58.918Z,53.57
2018-12-15T20:32:27.132Z,54.40
2018-12-15T20:34:54.831Z,54.23
2018-12-15T20:37:22.953Z,61.37
2018-12-15T20:39:50.716Z,61.47
2018-12-15T20:42:18.616Z,70.93
2018-12-15T20:44:46.735Z,69.63
2018-12-15T20:47:15.002Z,63.53
2018-12-15T20:49:42.968Z,65.00
2018-12-15T20:52:10.831Z,65.13
2018-12-15T20:54:38.747Z,63.90
2018-12-15T20:57:08.042Z,67.57
2018-12-15T20:59:36.281Z,62.90
2018-12-15T21:02:04.151Z,65.13
2018-12-15T21:04:32.059Z,67.83
2018-12-15T21:07:00.175Z,72.53
2018-12-15T21:09:28.141Z,63.03
2018-12-15T21:11:56.156Z,69.07
2018-12-15T21:14:24.124Z,63.10
2018-12-15T21:16:52.094Z,63.80
2018-12-15T21:19:20.130Z,69.50
2018-12-15T21:21:49.584Z,57.93
2018-12-15T21:24:18.134Z,64.83
2018-12-15T21:26:47.042Z,59.67
2018-12-15T21:29:15.041Z,64.53
2018-12-15T21:31:42.957Z,65.33
2018-12-15T21:34:12.077Z,64.10
2018-12-15T21:36:40.044Z,63.50
2018-12-15T21:39:08.129Z,59.93
2018-12-15T21:41:36.194Z,61.37
2018-12-15T21:44:04.164Z,68.37
2018-12-15T21:46:32.100Z,68.20
2018-12-15T21:48:59.968Z,69.47
2018-12-15T21:51:28.164Z,69.00
2018-12-15T21:53:56.172Z,60.77
2018-12-15T21:56:24.091Z,73.60
2018-12-15T21:58:52.029Z,70.47
2018-12-15T22:01:19.896Z,70.43
2018-12-15T22:03:47.761Z,67.20
2018-12-15T22:06:15.756Z,59.70
2018-12-15T22:08:43.716Z,65.47
2018-12-15T22:11:11.760Z,70.60
2018-12-15T22:13:39.763Z,70.70
2018-12-15T22:16:07.838Z,71.80
2018-12-15T22:18:36.133Z,79.90
2018-12-15T22:21:04.200Z,75.33
2018-12-15T22:23:32.210Z,69.90
2018-12-15T22:26:00.103Z,77.30
2018-12-15T22:28:28.066Z,71.43
2018-12-15T22:30:55.932Z,74.50
2018-12-15T22:33:24.073Z,70.40
2018-12-15T22:35:51.915Z,82.63
2018-12-15T22:38:20.084Z,77.47
2018-12-15T22:40:47.870Z,68.60
2018-12-15T22:43:16.011Z,66.30
2018-12-15T22:45:44.175Z,77.90
2018-12-15T22:48:12.116Z,69.90
2018-12-15T22:50:40.143Z,77.30
2018-12-15T22:53:08.206Z,69.27
2018-12-15T22:55:36.238Z,69.73
2018-12-15T22:58:04.204Z,76.63
2018-12-15T23:00:34.644Z,71.80
2018-12-15T23:03:02.610Z,72.90
2018-12-15T23:05:30.575Z,77.10
2018-12-15T23:07:58.642Z,70.33
2018-12-15T23:10:26.510Z,72.40
2018-12-15T23:12:54.518Z,73.10
2018-12-15T23:15:22.587Z,67.53
2018-12-15T23:17:50.328Z,81.27
2018-12-15T23:20:18.194Z,73.93
2018-12-15T23:22:46.161Z,81.70
2018-12-15T23:25:14.258Z,72.87
2018-12-15T23:27:42.266Z,74.40
2018-12-15T23:30:10.400Z,76.40
2018-12-15T23:32:38.397Z,83.27
2018-12-15T23:35:06.542Z,76.13
2018-12-15T23:37:34.528Z,80.57
2018-12-15T23:40:02.469Z,78.53
2018-12-15T23:42:30.410Z,74.07
2018-12-15T23:44:58.400Z,77.63
2018-12-15T23:47:26.492Z,78.50
2018-12-15T23:49:54.531Z,84.53
2018-12-15T23:52:23.454Z,77.90
2018-12-15T23:54:51.863Z,79.23
2018-12-15T23:57:19.979Z,80.00
2018-12-15T23:59:47.919Z,78.50
